Time;durP1;ratioP1;P1;durP2;ratioP2;P2;SDS_P1;SDS_P2;PMS_P1;PMS_P2;Temp;Humidity;BMP_temperature;BMP_pressure;BME280_temperature;BME280_humidity;BME280_pressure;Samples;Min_cycle;Max_cycle;Signal;HPM_P1;HPM_P2
2022/05/30 00:02:12;;;;;;;5.97;2.88;;;;;;;-144.47;56.62;53330.81;4999708;28;20029;-68
2022/05/30 00:04:38;;;;;;;8.75;2.72;;;;;;;-144.47;56.44;53358.63;4990155;28;20060;-68
2022/05/30 00:07:07;;;;;;;7.20;3.38;;;;;;;-144.47;56.93;53350.69;4988462;28;20041;-68
2022/05/30 00:09:33;;;;;;;11.23;2.92;;;;;;;-144.47;57.16;53378.50;4993031;28;20546;-67
2022/05/30 00:12:00;;;;;;;8.45;3.20;;;;;;;-144.47;57.33;53352.66;4996562;28;20081;-66
2022/05/30 00:14:26;;;;;;;6.35;2.55;;;;;;;-144.47;57.21;53360.63;4993763;28;20026;-68
2022/05/30 00:16:51;;;;;;;6.05;2.60;;;;;;;-144.47;57.28;53384.44;4992456;28;20375;-68
2022/05/30 00:19:16;;;;;;;6.47;2.83;;;;;;;-144.47;57.24;53336.78;4994947;28;20021;-67
2022/05/30 00:21:44;;;;;;;6.00;2.55;;;;;;;-144.47;57.39;53378.50;5000095;28;20400;-69
2022/05/30 00:24:09;;;;;;;5.10;2.65;;;;;;;-144.47;57.57;53358.63;4997599;28;20039;-67
2022/05/30 00:26:34;;;;;;;6.40;2.53;;;;;;;-144.47;57.49;53376.50;5012163;28;20026;-68
2022/05/30 00:29:00;;;;;;;4.93;2.45;;;;;;;-144.47;57.79;53364.59;4993927;28;20026;-69
2022/05/30 00:31:25;;;;;;;4.82;2.20;;;;;;;-144.47;57.74;53362.59;4992214;28;20509;-67
2022/05/30 00:33:50;;;;;;;6.82;2.00;;;;;;;-144.47;58.13;53370.53;5000016;28;20058;-68
2022/05/30 00:36:16;;;;;;;4.78;2.35;;;;;;;-144.47;58.04;53366.56;5003397;28;20624;-69
2022/05/30 00:38:41;;;;;;;6.97;3.38;;;;;;;-144.47;58.27;53354.66;5006964;28;20030;-67
2022/05/30 00:41:07;;;;;;;10.50;2.75;;;;;;;-144.47;58.82;53360.63;5002733;28;20034;-69
2022/05/30 00:43:35;;;;;;;6.18;2.47;;;;;;;-144.47;58.86;53380.47;5007401;28;20026;-70
2022/05/30 00:46:02;;;;;;;5.18;2.40;;;;;;;-144.47;59.12;53362.59;4991666;28;20041;-68
2022/05/30 00:48:35;;;;;;;6.32;2.17;;;;;;;-144.47;59.35;53412.25;4996739;28;20058;-68
2022/05/30 00:51:04;;;;;;;5.82;2.38;;;;;;;-144.47;59.35;53348.69;4988174;28;20470;-67
2022/05/30 00:53:33;;;;;;;10.40;2.72;;;;;;;-144.47;59.43;53372.53;5000922;28;20097;-66
2022/05/30 00:56:05;;;;;;;5.60;2.10;;;;;;;-144.47;59.58;53400.34;4991797;28;20346;-67
2022/05/30 00:58:35;;;;;;;6.13;2.42;;;;;;;-144.47;59.77;53392.41;5003856;28;20046;-66
2022/05/30 01:01:01;;;;;;;10.75;3.13;;;;;;;-144.47;59.50;53376.50;5004807;28;20121;-67
2022/05/30 01:08:55;;;;;;;10.27;3.22;;;;;;;-144.47;60.27;53424.19;4998560;28;20119;-66
2022/05/30 01:11:21;;;;;;;10.60;3.00;;;;;;;-144.47;60.53;53362.59;5003265;28;20689;-67
2022/05/30 01:13:46;;;;;;;9.73;2.97;;;;;;;-144.47;60.72;53392.41;4991478;28;20027;-66
2022/05/30 01:16:12;;;;;;;14.10;3.20;;;;;;;-144.47;60.57;53402.31;4991303;28;20489;-69
2022/05/30 01:18:45;;;;;;;5.70;2.70;;;;;;;-144.47;60.84;53382.47;4991164;28;20045;-68
2022/05/30 01:21:25;;;;;;;13.35;3.35;;;;;;;-144.47;61.16;53392.41;4988781;28;20042;-70
2022/05/30 01:23:54;;;;;;;7.53;2.95;;;;;;;-144.47;61.35;53372.53;4993525;28;20376;-67
2022/05/30 01:26:36;;;;;;;8.40;2.93;;;;;;;-144.47;61.50;53358.63;5001542;28;20049;-66
2022/05/30 01:29:12;;;;;;;7.28;3.20;;;;;;;-144.47;61.98;53398.34;4995139;28;20042;-66
2022/05/30 01:31:37;;;;;;;8.05;3.08;;;;;;;-144.47;62.29;53362.59;4997458;28;20347;-68
2022/05/30 01:34:03;;;;;;;6.28;2.72;;;;;;;-144.47;62.36;53350.69;5003969;28;20050;-66
2022/05/30 01:36:31;;;;;;;7.88;2.97;;;;;;;-144.47;62.60;53368.56;4988586;28;20132;-68
2022/05/30 01:38:56;;;;;;;18.27;3.08;;;;;;;-144.47;62.26;53364.59;4994741;28;20172;-68
2022/05/30 01:41:22;;;;;;;9.77;3.53;;;;;;;-144.47;62.33;53398.34;4990750;28;20141;-66
2022/05/30 01:43:47;;;;;;;5.55;3.17;;;;;;;-144.47;62.01;53380.47;4989682;28;20121;-68
2022/05/30 01:46:21;;;;;;;5.80;3.10;;;;;;;-144.47;62.20;53370.53;4987384;28;20121;-68
2022/05/30 01:48:47;;;;;;;6.78;3.00;;;;;;;-144.47;62.26;53444.03;4990733;28;20113;-66
2022/05/30 01:51:17;;;;;;;8.43;2.75;;;;;;;-144.47;62.39;53380.47;4990991;28;20105;-68
2022/05/30 01:53:42;;;;;;;7.13;3.08;;;;;;;-144.47;62.68;53374.50;5000809;28;20027;-69
2022/05/30 01:56:08;;;;;;;9.48;3.28;;;;;;;-144.47;62.67;53356.63;4990761;28;20018;-70
2022/05/30 01:58:34;;;;;;;12.60;3.72;;;;;;;-144.47;62.88;53394.38;5000160;28;20033;-66
2022/05/30 02:01:04;;;;;;;6.85;3.38;;;;;;;-144.47;63.02;53402.31;4990533;28;20041;-68
2022/05/30 02:03:30;;;;;;;8.00;3.70;;;;;;;-144.47;63.18;53398.34;4990638;28;20393;-68
2022/05/30 02:05:56;;;;;;;10.50;3.55;;;;;;;-144.47;63.40;53358.63;4999027;28;20026;-68
2022/05/30 02:08:21;;;;;;;11.27;4.38;;;;;;;-144.47;63.35;53380.47;4990372;28;20030;-67
2022/05/30 02:10:48;;;;;;;14.45;4.35;;;;;;;-144.47;63.53;53398.34;5003014;28;20154;-66
2022/05/30 02:13:13;;;;;;;7.32;3.30;;;;;;;-144.47;63.33;53390.41;4988833;28;20149;-65
2022/05/30 02:18:22;;;;;;;11.15;4.05;;;;;;;-144.47;63.54;53342.72;4989849;28;20037;-68
2022/05/30 02:20:48;;;;;;;10.88;4.22;;;;;;;-144.47;63.35;53396.38;4989631;28;20022;-68
2022/05/30 02:23:14;;;;;;;9.65;4.03;;;;;;;-144.47;63.25;53380.47;4989343;28;20045;-68
2022/05/30 02:25:40;;;;;;;10.73;4.97;;;;;;;-144.47;63.21;53396.38;4990419;28;20109;-68
2022/05/30 02:28:06;;;;;;;8.27;3.60;;;;;;;-144.47;63.02;53380.47;4989875;28;20042;-67
2022/05/30 02:30:31;;;;;;;9.85;4.25;;;;;;;-144.47;63.05;53372.53;5002640;28;20018;-67
2022/05/30 02:36:38;;;;;;;8.90;4.30;;;;;;;-144.47;63.26;53406.31;4989677;28;20027;-67
2022/05/30 02:38:25;;;;;;;11.50;4.07;;;;;;;-144.47;63.51;53382.47;4999651;28;20054;-67
2022/05/30 02:40:51;;;;;;;15.85;4.40;;;;;;;-144.47;63.64;53420.22;4968324;28;20027;-66
2022/05/30 02:43:16;;;;;;;12.52;4.80;;;;;;;-144.47;63.54;53364.59;4988281;28;20458;-68
2022/05/30 02:45:41;;;;;;;14.05;4.25;;;;;;;-144.47;63.73;53390.41;5000046;28;20088;-68
2022/05/30 02:48:08;;;;;;;11.23;4.47;;;;;;;-144.47;64.00;53380.47;4991631;28;20393;-67
2022/05/30 02:50:33;;;;;;;17.52;5.70;;;;;;;-144.47;63.97;53338.75;5000379;28;20038;-66
2022/05/30 02:52:58;;;;;;;19.17;4.90;;;;;;;-144.47;63.97;53430.13;4992452;28;21188;-68
2022/05/30 02:55:24;;;;;;;11.48;5.43;;;;;;;-144.47;63.70;53396.38;4998017;28;20117;-67
2022/05/30 02:57:50;;;;;;;19.63;5.97;;;;;;;-144.47;63.85;53380.47;5006285;28;20026;-67
2022/05/30 03:00:16;;;;;;;20.45;5.43;;;;;;;-144.47;63.92;53378.50;4989347;28;20033;-69
2022/05/30 03:02:41;;;;;;;13.32;6.47;;;;;;;-144.47;63.97;53392.41;4988604;28;20377;-67
2022/05/30 03:05:06;;;;;;;17.02;5.93;;;;;;;-144.47;64.12;53394.38;4990609;28;20028;-68
2022/05/30 03:07:32;;;;;;;20.52;6.38;;;;;;;-144.47;64.10;53392.41;4991276;28;20210;-67
2022/05/30 03:09:57;;;;;;;21.00;5.90;;;;;;;-144.47;64.34;53402.31;4998859;28;20445;-69
2022/05/30 03:12:22;;;;;;;16.95;5.72;;;;;;;-144.47;64.19;53408.28;5001980;28;20097;-67
2022/05/30 03:14:49;;;;;;;18.15;6.20;;;;;;;-144.47;64.12;53366.56;4989255;28;20506;-68
2022/05/30 03:17:14;;;;;;;22.58;6.93;;;;;;;-144.47;64.02;53406.31;4987429;28;20161;-69
2022/05/30 03:19:39;;;;;;;11.75;6.50;;;;;;;-144.47;64.25;53392.41;4996540;28;20105;-68
2022/05/30 03:22:05;;;;;;;15.50;7.53;;;;;;;-144.47;64.17;53412.25;4994072;28;20073;-70
2022/05/30 03:24:30;;;;;;;12.88;6.32;;;;;;;-144.47;64.59;53356.63;4989289;28;20034;-69
2022/05/30 03:26:55;;;;;;;17.02;7.45;;;;;;;-144.47;64.70;53374.50;4994070;28;20116;-71
2022/05/30 03:29:21;;;;;;;20.48;7.10;;;;;;;-144.47;64.56;53336.78;5002423;28;20032;-66
2022/05/30 03:31:46;;;;;;;15.57;7.55;;;;;;;-144.47;64.74;53402.31;5003068;28;20027;-70
2022/05/30 03:34:11;;;;;;;24.48;7.63;;;;;;;-144.47;64.47;53398.34;4990727;28;20026;-68
2022/05/30 03:36:37;;;;;;;17.73;8.18;;;;;;;-144.47;64.51;53386.44;4989240;28;20514;-68
2022/05/30 03:39:02;;;;;;;15.57;7.55;;;;;;;-144.47;64.44;53392.41;4983414;28;20324;-68
2022/05/30 03:41:28;;;;;;;23.48;7.75;;;;;;;-144.47;64.31;53368.56;4981978;28;20054;-66
2022/05/30 03:43:59;;;;;;;23.60;7.35;;;;;;;-144.47;64.79;53386.44;4995549;28;20033;-67
2022/05/30 03:46:25;;;;;;;24.52;8.10;;;;;;;-144.47;64.67;53372.53;4995744;28;20109;-69
2022/05/30 03:48:50;;;;;;;15.52;8.05;;;;;;;-144.47;64.33;53400.34;5002233;28;20429;-66
2022/05/30 03:51:16;;;;;;;19.15;8.30;;;;;;;-144.47;64.48;53400.34;4995497;28;20050;-68
2022/05/30 03:53:42;;;;;;;25.55;10.32;;;;;;;-144.47;64.41;53416.22;4997985;28;20022;-67
2022/05/30 03:56:08;;;;;;;28.83;9.20;;;;;;;-144.47;64.58;53362.59;5011248;28;20405;-67
2022/05/30 03:58:33;;;;;;;25.42;9.65;;;;;;;-144.47;64.27;53386.44;4992245;28;20030;-69
2022/05/30 04:00:58;;;;;;;23.10;9.98;;;;;;;-144.47;64.12;53392.41;4998084;28;20034;-65
2022/05/30 04:03:24;;;;;;;19.55;9.00;;;;;;;-144.47;63.93;53372.53;5012060;28;20060;-67
2022/05/30 04:05:49;;;;;;;20.95;8.98;;;;;;;-144.47;63.95;53390.41;5007092;28;20053;-65
2022/05/30 04:08:14;;;;;;;23.67;10.20;;;;;;;-144.47;64.47;53380.47;4992319;28;20413;-67
2022/05/30 04:10:40;;;;;;;25.80;10.82;;;;;;;-144.47;64.54;53364.59;4991510;28;20125;-68
2022/05/30 04:13:08;;;;;;;24.50;10.63;;;;;;;-144.47;64.70;53380.47;4991962;28;20018;-69
2022/05/30 04:15:34;;;;;;;26.80;9.57;;;;;;;-144.47;64.46;53350.69;4992091;28;20513;-68
2022/05/30 04:17:59;;;;;;;25.77;10.68;;;;;;;-144.47;64.89;53400.34;5000382;28;20547;-69
2022/05/30 04:20:25;;;;;;;27.75;10.90;;;;;;;-144.47;64.82;53400.34;4996504;28;20121;-69
2022/05/30 04:22:51;;;;;;;27.52;11.43;;;;;;;-144.47;64.74;53342.72;4992267;28;20048;-66
2022/05/30 04:25:17;;;;;;;21.67;9.40;;;;;;;-144.47;64.39;53384.44;4992053;28;20489;-69
2022/05/30 04:27:42;;;;;;;29.75;10.95;;;;;;;-144.47;64.41;53428.16;4991661;28;20038;-71
2022/05/30 04:30:08;;;;;;;26.98;10.95;;;;;;;-144.47;64.61;53408.28;4991294;28;20053;-68
2022/05/30 04:32:34;;;;;;;28.23;11.18;;;;;;;-144.47;64.70;53368.56;4991968;28;20014;-70
2022/05/30 04:35:00;;;;;;;30.00;12.18;;;;;;;-144.47;64.92;53400.34;5002796;28;20098;-70
2022/05/30 04:37:27;;;;;;;31.27;11.40;;;;;;;-144.47;64.95;53362.59;4990396;28;20070;-69
2022/05/30 04:42:42;;;;;;;27.75;10.90;;;;;;;-144.47;64.67;53380.47;5007793;28;20571;-65
2022/05/30 04:45:07;;;;;;;30.90;10.45;;;;;;;-144.47;64.27;53382.47;5012638;28;20056;-65
2022/05/30 04:47:35;;;;;;;34.97;10.15;;;;;;;-144.47;64.35;53422.19;5012430;28;20021;-66
2022/05/30 04:50:05;;;;;;;23.38;10.38;;;;;;;-144.47;63.66;53374.50;5012086;28;20044;-67
2022/05/30 04:52:31;;;;;;;28.83;11.00;;;;;;;-144.47;63.73;53362.59;5011938;28;20018;-66
2022/05/30 04:54:57;;;;;;;32.58;10.15;;;;;;;-144.47;63.59;53360.63;5011639;28;20072;-67
2022/05/30 04:57:22;;;;;;;29.83;10.50;;;;;;;-144.47;63.82;53426.16;5011753;28;20026;-66
2022/05/30 04:59:48;;;;;;;27.67;11.25;;;;;;;-144.47;63.62;53380.47;5010184;28;20064;-66
2022/05/30 05:02:15;;;;;;;31.85;11.02;;;;;;;-144.47;63.60;53366.56;5012421;28;20067;-65
2022/05/30 05:04:41;;;;;;;27.77;11.60;;;;;;;-144.47;63.43;53384.44;5010866;28;20033;-67
2022/05/30 05:07:07;;;;;;;30.92;12.43;;;;;;;-144.47;64.05;53408.28;5011163;28;20587;-68
2022/05/30 05:09:55;;;;;;;35.33;12.88;;;;;;;-144.47;63.77;53392.41;5011822;28;20022;-66
2022/05/30 05:12:20;;;;;;;23.25;11.52;;;;;;;-144.47;63.58;53384.44;5012319;28;20056;-69
2022/05/30 05:14:45;;;;;;;31.00;11.63;;;;;;;-144.47;63.62;53414.25;5014110;28;20026;-69
2022/05/30 05:17:11;;;;;;;26.40;11.75;;;;;;;-144.47;63.54;53404.31;5012402;28;20156;-67
2022/05/30 05:19:38;;;;;;;33.83;11.25;;;;;;;-144.47;63.43;53406.31;5011157;28;20053;-67
2022/05/30 05:22:04;;;;;;;28.52;10.70;;;;;;;-144.47;63.32;53364.59;5011297;28;20241;-69
2022/05/30 05:24:29;;;;;;;35.35;10.43;;;;;;;-144.47;62.93;53412.25;5011919;28;20509;-68
2022/05/30 05:26:54;;;;;;;25.05;8.45;;;;;;;-144.47;62.95;53384.44;5011264;28;20025;-69
2022/05/30 05:29:19;;;;;;;30.52;8.10;;;;;;;-144.47;63.38;53380.47;5011560;28;20097;-72
2022/05/30 05:31:45;;;;;;;38.28;9.63;;;;;;;-144.47;63.18;53370.53;5011132;28;20398;-67
2022/05/30 05:34:13;;;;;;;38.00;9.32;;;;;;;-144.47;63.34;53428.16;5011637;28;20028;-66
2022/05/30 05:36:41;;;;;;;38.05;11.25;;;;;;;-144.47;63.48;53416.22;5005733;28;20037;-70
2022/05/30 05:39:07;;;;;;;28.38;8.75;;;;;;;-144.47;63.00;53372.53;5010403;28;20030;-71
2022/05/30 05:41:33;;;;;;;27.23;8.15;;;;;;;-144.47;63.28;53394.38;5011002;28;20029;-66
2022/05/30 05:43:58;;;;;;;34.42;7.60;;;;;;;-144.47;63.62;53364.59;5010864;28;20026;-71
2022/05/30 05:46:28;;;;;;;32.42;8.07;;;;;;;-144.47;64.51;53392.41;5010587;28;20022;-70
2022/05/30 05:48:55;;;;;;;46.60;8.82;;;;;;;-144.47;64.53;53350.69;5011398;28;20026;-67
2022/05/30 05:51:21;;;;;;;26.52;7.72;;;;;;;-144.47;64.77;53410.28;5008855;28;20030;-69
2022/05/30 05:53:47;;;;;;;44.42;9.20;;;;;;;-144.47;64.22;53398.34;5011557;28;20076;-67
2022/05/30 05:56:26;;;;;;;38.75;8.30;;;;;;;-144.47;63.93;53406.31;5011327;28;20025;-69
2022/05/30 05:58:52;;;;;;;20.15;6.95;;;;;;;-144.47;63.88;53414.25;4994543;28;20022;-68
2022/05/30 06:01:30;;;;;;;24.05;7.38;;;;;;;-144.47;63.49;53404.31;5010944;28;20104;-69
2022/05/30 06:03:57;;;;;;;29.13;7.88;;;;;;;-144.47;63.20;53376.50;5011377;28;20041;-70
2022/05/30 06:06:24;;;;;;;28.40;7.20;;;;;;;-144.47;63.16;53394.38;5011580;28;20030;-69
2022/05/30 06:08:50;;;;;;;27.75;8.60;;;;;;;-144.47;62.95;53358.63;5012108;28;20032;-70
2022/05/30 06:11:16;;;;;;;30.10;8.98;;;;;;;-144.47;62.66;53412.25;5011847;28;20424;-67
2022/05/30 06:13:44;;;;;;;25.30;7.95;;;;;;;-144.47;63.03;53384.44;5010861;28;20500;-68
2022/05/30 06:16:26;;;;;;;23.73;8.40;;;;;;;-144.47;62.87;53386.44;5010721;28;20022;-70
2022/05/30 06:18:54;;;;;;;24.05;7.45;;;;;;;-144.47;62.63;53364.59;5010355;28;20041;-65
2022/05/30 06:21:21;;;;;;;41.57;9.90;;;;;;;-144.47;62.37;53396.38;5010204;28;20053;-66
2022/05/30 06:23:47;;;;;;;28.17;8.52;;;;;;;-144.47;62.76;53412.25;5010508;28;20030;-70
2022/05/30 06:26:14;;;;;;;33.78;8.95;;;;;;;-144.47;62.68;53392.41;5011309;28;20033;-71
2022/05/30 06:28:41;;;;;;;32.70;9.02;;;;;;;-144.47;62.71;53392.41;5010604;28;20033;-67
2022/05/30 06:31:28;;;;;;;25.27;8.45;;;;;;;-144.47;62.31;53368.56;5010792;28;20088;-69
2022/05/30 06:33:53;;;;;;;41.60;9.15;;;;;;;-144.47;62.80;53390.41;5010398;28;20071;-67
2022/05/30 06:36:21;;;;;;;33.33;8.65;;;;;;;-144.47;63.14;53348.69;5010105;28;20022;-72
2022/05/30 06:38:47;;;;;;;41.75;9.55;;;;;;;-144.47;63.53;53392.41;5006494;28;20109;-69
2022/05/30 06:41:15;;;;;;;35.08;9.02;;;;;;;-144.47;63.63;53400.34;5001855;28;20108;-69
2022/05/30 06:43:42;;;;;;;30.23;9.10;;;;;;;-144.47;63.62;53432.13;5012089;28;20036;-67
2022/05/30 06:46:08;;;;;;;26.55;9.15;;;;;;;-144.47;64.26;53402.31;5010396;28;20065;-71
2022/05/30 06:48:34;;;;;;;28.63;7.85;;;;;;;-144.47;62.47;53414.25;5009675;28;20025;-70
2022/05/30 06:51:02;;;;;;;40.38;8.30;;;;;;;-144.47;62.62;53368.56;5007891;28;20022;-69
2022/05/30 06:53:28;;;;;;;34.80;8.57;;;;;;;-144.47;62.26;53400.34;5010115;28;20022;-70
2022/05/30 06:55:53;;;;;;;37.05;7.60;;;;;;;-144.47;62.37;53368.56;5009315;28;20129;-66
2022/05/30 06:58:19;;;;;;;28.60;9.50;;;;;;;-144.47;62.94;53370.53;5009966;28;20103;-72
2022/05/30 07:00:46;;;;;;;39.67;8.85;;;;;;;-144.47;62.29;53362.59;5007100;28;20048;-67
2022/05/30 07:03:13;;;;;;;29.92;8.45;;;;;;;-144.47;62.11;53326.84;5007813;28;20120;-68
2022/05/30 07:05:43;;;;;;;37.83;9.55;;;;;;;-144.47;61.89;53396.38;5001987;28;20030;-72
2022/05/30 07:08:09;;;;;;;25.63;8.05;;;;;;;-144.47;61.19;53368.56;4997898;28;20033;-71
2022/05/30 07:10:37;;;;;;;27.92;7.18;;;;;;;-144.47;60.56;53324.84;5001559;28;20378;-70
2022/05/30 07:13:04;;;;;;;25.00;7.00;;;;;;;-144.47;61.07;53350.69;5004727;28;20029;-73
2022/05/30 07:15:31;;;;;;;21.10;7.10;;;;;;;-144.47;61.57;53360.63;5003044;28;20786;-67
2022/05/30 07:17:57;;;;;;;29.45;6.13;;;;;;;-144.47;59.77;53348.69;4997311;28;20905;-72
2022/05/30 07:20:23;;;;;;;26.40;6.93;;;;;;;-144.47;59.93;53380.47;5006444;28;20444;-71
2022/05/30 07:22:49;;;;;;;28.10;6.30;;;;;;;-144.47;60.44;53392.41;5008391;28;20030;-73
2022/05/30 07:25:15;;;;;;;29.42;6.25;;;;;;;-144.47;60.37;53356.63;5009622;28;20033;-71
2022/05/30 07:27:41;;;;;;;30.58;7.15;;;;;;;-144.47;60.96;53392.41;5009784;28;20053;-68
2022/05/30 07:30:07;;;;;;;30.52;5.88;;;;;;;-144.47;59.02;53358.63;5009185;28;20058;-67
2022/05/30 07:32:33;;;;;;;30.10;5.28;;;;;;;-144.47;58.46;53378.50;5009491;28;20489;-68
2022/05/30 07:35:00;;;;;;;22.88;5.60;;;;;;;-144.47;58.65;53334.78;5005975;28;20022;-71
2022/05/30 07:37:25;;;;;;;20.92;6.57;;;;;;;-144.47;58.28;53340.75;5009436;28;20056;-68
2022/05/30 07:39:51;;;;;;;31.25;6.07;;;;;;;-144.47;57.63;53358.63;5005911;28;20066;-66
2022/05/30 07:42:16;;;;;;;18.08;5.40;;;;;;;-144.47;57.56;53380.47;5010409;28;20233;-65
2022/05/30 07:44:41;;;;;;;25.73;5.88;;;;;;;-144.47;58.13;53348.69;5010619;28;20026;-70
2022/05/30 07:47:07;;;;;;;19.30;6.25;;;;;;;-144.47;58.12;53358.63;5009587;28;20037;-68
2022/05/30 07:49:32;;;;;;;29.92;6.57;;;;;;;-144.47;58.14;53334.78;5009484;28;20040;-67
2022/05/30 07:51:58;;;;;;;29.20;6.07;;;;;;;-144.47;57.69;53372.53;5009701;28;20088;-66
2022/05/30 07:54:23;;;;;;;22.35;5.65;;;;;;;-144.47;57.64;53402.31;5009074;28;20032;-65
2022/05/30 07:56:48;;;;;;;21.70;6.18;;;;;;;-144.47;57.23;53380.47;5009311;28;20021;-69
2022/05/30 07:59:14;;;;;;;29.77;5.78;;;;;;;-144.47;57.49;53342.72;5009125;28;20037;-67
2022/05/30 08:01:39;;;;;;;24.15;5.85;;;;;;;-144.47;57.47;53368.56;5009331;28;20061;-69
2022/05/30 08:04:04;;;;;;;26.92;5.15;;;;;;;-144.47;57.28;53360.63;5009814;28;20030;-66
2022/05/30 08:06:31;;;;;;;20.83;5.10;;;;;;;-144.47;56.94;53334.78;5008483;28;20163;-68
2022/05/30 08:08:56;;;;;;;19.23;3.95;;;;;;;-144.47;56.52;53364.59;5007538;28;20121;-68
2022/05/30 08:11:23;;;;;;;25.90;5.45;;;;;;;-144.47;56.60;53348.69;5009246;28;20100;-67
2022/05/30 08:13:49;;;;;;;20.05;4.35;;;;;;;-144.47;56.57;53324.84;5008320;28;20022;-68
2022/05/30 08:16:24;;;;;;;33.03;4.75;;;;;;;-144.47;55.95;53368.56;5008551;28;20022;-66
2022/05/30 08:18:49;;;;;;;20.75;4.57;;;;;;;-144.47;55.30;53338.75;5009342;28;20168;-66
2022/05/30 08:21:16;;;;;;;21.73;4.68;;;;;;;-144.47;54.93;53342.72;5009112;28;20034;-69
2022/05/30 08:23:42;;;;;;;23.38;4.63;;;;;;;-144.47;55.44;53372.53;5008789;28;20057;-71
2022/05/30 08:26:07;;;;;;;17.02;4.53;;;;;;;-144.47;55.64;53350.69;5009967;28;20139;-68
2022/05/30 08:28:33;;;;;;;23.88;5.38;;;;;;;-144.47;55.32;53372.53;5008591;28;20561;-70
2022/05/30 08:30:59;;;;;;;26.50;7.00;;;;;;;-144.47;53.91;53324.84;5008894;28;20508;-69
2022/05/30 08:33:24;;;;;;;24.55;7.05;;;;;;;-144.47;54.18;53350.69;5008357;28;20123;-66
2022/05/30 08:36:10;;;;;;;19.55;5.13;;;;;;;-144.47;53.08;53344.72;5007121;28;20173;-67
2022/05/30 08:38:37;;;;;;;27.80;4.93;;;;;;;-144.47;52.73;53340.75;5007896;28;20040;-66
2022/05/30 08:43:50;;;;;;;17.55;5.65;;;;;;;-144.47;52.33;53336.78;5012420;28;20036;-67
2022/05/30 08:46:24;;;;;;;19.20;4.68;;;;;;;-144.47;50.33;53306.97;5011849;28;20029;-67
2022/05/30 08:49:22;;;;;;;16.42;3.40;;;;;;;-144.47;49.82;53326.84;5012367;28;20037;-65
2022/05/30 08:52:06;;;;;;;13.35;3.55;;;;;;;-144.47;50.05;53310.94;5008062;28;20030;-67
2022/05/30 08:54:34;;;;;;;16.77;3.40;;;;;;;-144.47;49.81;53334.78;5010668;28;20378;-70
2022/05/30 08:57:02;;;;;;;17.45;3.85;;;;;;;-144.47;49.64;53308.97;5012007;28;20233;-67
2022/05/30 08:59:37;;;;;;;19.27;4.88;;;;;;;-144.47;49.73;53303.00;5011118;28;20076;-66
2022/05/30 09:02:30;;;;;;;24.45;4.88;;;;;;;-144.47;49.72;53305.00;5002502;28;20434;-73
2022/05/30 09:05:17;;;;;;;22.40;4.53;;;;;;;-144.47;49.06;53332.81;5011944;28;20030;-68
2022/05/30 09:07:49;;;;;;;23.98;4.75;;;;;;;-144.47;49.12;53332.81;5012624;28;20050;-69
2022/05/30 09:10:33;;;;;;;22.83;5.18;;;;;;;-144.47;49.38;53308.97;5010715;28;20025;-70
2022/05/30 09:13:18;;;;;;;22.33;4.43;;;;;;;-144.47;48.38;53301.03;5011801;28;20022;-68
2022/05/30 09:16:03;;;;;;;16.10;5.43;;;;;;;-144.47;47.77;53308.97;5011760;28;20036;-73
2022/05/30 09:18:39;;;;;;;19.65;5.07;;;;;;;-144.47;48.09;53322.88;5011436;28;20026;-68
2022/05/30 09:21:04;;;;;;;22.60;5.28;;;;;;;-144.47;48.78;53354.66;5011779;28;20148;-67
2022/05/30 09:23:30;;;;;;;19.48;5.05;;;;;;;-144.47;47.82;53306.97;5011517;28;20549;-67
2022/05/30 09:25:55;;;;;;;12.80;4.13;;;;;;;-144.47;48.39;53310.94;5011507;28;20037;-69
2022/05/30 09:28:21;;;;;;;16.58;4.38;;;;;;;-144.47;48.65;53301.03;5010994;28;20029;-70
2022/05/30 09:31:17;;;;;;;12.68;4.03;;;;;;;-144.47;48.93;53275.19;5010829;28;20040;-69
2022/05/30 09:33:46;;;;;;;22.35;4.75;;;;;;;-144.47;48.80;53308.97;5011398;28;20029;-69
2022/05/30 09:36:29;;;;;;;13.80;4.47;;;;;;;-144.47;46.93;53289.09;5006614;28;20025;-69
2022/05/30 09:38:59;;;;;;;12.70;3.70;;;;;;;-144.47;47.12;53332.81;5006106;28;20076;-71
2022/05/30 09:41:49;;;;;;;13.98;3.90;;;;;;;-144.47;47.40;53334.78;5012732;28;20025;-71
2022/05/30 09:44:17;;;;;;;18.85;5.30;;;;;;;-144.47;46.92;53293.06;5004270;28;20032;-69
2022/05/30 09:46:49;;;;;;;12.40;4.03;;;;;;;-144.47;46.15;53287.13;5004230;28;20045;-70
2022/05/30 09:49:18;;;;;;;11.38;4.38;;;;;;;-144.47;46.50;53310.94;5004772;28;20026;-72
2022/05/30 09:51:55;;;;;;;20.55;5.35;;;;;;;-144.47;46.03;53303.00;5003679;28;20046;-73
2022/05/30 09:54:24;;;;;;;16.02;4.30;;;;;;;-144.47;44.87;53293.06;5003982;28;20382;-69
2022/05/30 09:56:52;;;;;;;9.25;3.58;;;;;;;-144.47;45.08;53303.00;5005706;28;20040;-72
2022/05/30 09:59:38;;;;;;;8.50;3.58;;;;;;;-144.47;44.88;53283.13;5005665;28;20030;-70
2022/05/30 10:02:21;;;;;;;29.23;4.68;;;;;;;-144.47;45.00;53287.13;5004569;28;20092;-73
2022/05/30 10:04:46;;;;;;;16.48;4.70;;;;;;;-144.47;45.59;53301.03;5004345;28;20191;-74
2022/05/30 10:07:18;;;;;;;19.10;5.57;;;;;;;-144.47;45.13;53297.03;5005028;28;20076;-72
2022/05/30 10:09:56;;;;;;;18.85;3.33;;;;;;;-144.47;43.87;53285.13;5004315;28;20033;-71
2022/05/30 10:12:41;;;;;;;12.05;3.55;;;;;;;-144.47;43.71;53289.09;5003948;28;20038;-72
2022/05/30 10:15:43;;;;;;;14.15;3.67;;;;;;;-144.47;43.16;53297.03;5003522;28;20531;-68
2022/05/30 10:18:17;;;;;;;17.00;3.42;;;;;;;-144.47;42.75;53291.09;4998988;28;20526;-70
2022/05/30 10:21:02;;;;;;;14.18;3.25;;;;;;;-144.47;42.20;53285.13;5003767;28;20041;-74
2022/05/30 10:30:08;;;;;;;11.35;3.15;;;;;;;-144.47;40.86;53273.22;5003932;28;20589;-69
2022/05/30 10:33:02;;;;;;;15.75;3.42;;;;;;;-144.47;41.09;53245.41;4998715;28;20041;-70
2022/05/30 10:35:57;;;;;;;14.35;3.58;;;;;;;-144.47;41.40;53265.25;5003304;28;20030;-69
2022/05/30 10:38:48;;;;;;;7.03;3.40;;;;;;;-144.47;41.38;53287.13;5005855;28;20038;-70
2022/05/30 10:41:26;;;;;;;12.80;3.70;;;;;;;-144.47;41.27;53253.34;5025639;22;20350;-88
2022/05/30 10:44:15;;;;;;;17.25;3.60;;;;;;;-144.47;41.73;53275.19;5014530;28;20026;-86
2022/05/30 10:47:08;;;;;;;13.45;3.80;;;;;;;-144.47;41.60;53293.06;4996934;28;20038;-87
2022/05/30 10:49:45;;;;;;;16.48;4.18;;;;;;;-144.47;41.73;53283.13;5014255;28;20120;-86
2022/05/30 10:52:39;;;;;;;15.65;4.00;;;;;;;-144.47;40.79;53295.06;5013176;28;20021;-87
2022/05/30 10:55:28;;;;;;;18.55;3.72;;;;;;;-144.47;41.11;53263.28;5012638;28;20022;-88
2022/05/30 10:58:04;;;;;;;15.55;4.07;;;;;;;-144.47;40.43;53245.41;5014573;28;20026;-88
2022/05/30 11:00:40;;;;;;;19.98;3.95;;;;;;;-144.47;41.32;53247.38;5014098;28;20243;-87
2022/05/30 11:03:20;;;;;;;17.88;3.80;;;;;;;-144.47;41.40;53287.13;5014013;28;20018;-88
2022/05/30 11:06:09;;;;;;;17.45;4.10;;;;;;;-144.47;40.71;53259.31;5013460;28;20025;-87
2022/05/30 11:08:54;;;;;;;16.55;4.70;;;;;;;-144.47;40.21;53229.50;5014130;28;20211;-88
2022/05/30 11:12:11;;;;;;;10.05;3.28;;;;;;;-144.47;38.79;53225.53;5014454;28;20021;-87
2022/05/30 11:14:45;;;;;;;17.73;3.40;;;;;;;-144.47;39.11;53247.38;4990944;28;20052;-86
2022/05/30 11:17:23;;;;;;;15.85;3.60;;;;;;;-144.47;39.86;53289.09;5013357;28;20057;-86
2022/05/30 11:20:23;;;;;;;8.93;3.40;;;;;;;-144.47;40.53;53275.19;5014079;28;20034;-84
2022/05/30 11:22:54;;;;;;;16.88;4.40;;;;;;;-144.47;40.07;53277.19;5013742;28;20121;-86
2022/05/30 11:25:44;;;;;;;13.65;3.50;;;;;;;-144.47;39.86;53271.22;5011878;28;20041;-87
2022/05/30 11:28:43;;;;;;;15.05;3.22;;;;;;;-144.47;39.65;53275.19;5014413;28;20026;-86
2022/05/30 11:31:26;;;;;;;10.93;2.72;;;;;;;-144.47;39.44;53265.25;5013520;28;20021;-86
2022/05/30 11:34:20;;;;;;;10.50;2.90;;;;;;;-144.47;39.24;53249.38;5015127;28;20034;-86
2022/05/30 11:37:06;;;;;;;7.85;3.10;;;;;;;-144.47;39.66;53269.22;5013307;28;20648;-86
2022/05/30 11:39:56;;;;;;;10.30;3.50;;;;;;;-144.47;40.34;53265.25;5003162;28;20424;-86
2022/05/30 11:42:40;;;;;;;10.73;3.10;;;;;;;-144.47;40.58;53265.25;5008248;28;20022;-86
2022/05/30 11:45:29;;;;;;;17.50;3.88;;;;;;;-144.47;45.18;53279.16;5014203;28;20030;-87
2022/05/30 11:48:23;;;;;;;22.15;4.50;;;;;;;-144.47;47.14;53332.81;5013448;28;20368;-86